Latest Weather Observations for Camooweal

IDD60801

Issued at 12:31 pm CST Saturday 18 April 2015 (issued every 30 minutes, with the page automatically refreshed every 10 minutes)

About weather observations | Map of weather stations | Latest weather observations for NT | Other Formats
Station Details ID: 037010 Name: CAMOOWEAL TOWNSHIP Lat: -19.92 Lon: 138.12 Height: 231.2 m
Data from the previous 72 hours. | See also: Recent months at Camooweal
Date/Time
CST
Temp
°C
App
Temp
°C
Dew
Point
Rel
Hum
%
Delta-T
°C
Wind Press
QNH
hPa
Press
MSL
hPa
Rain
since 9 am
mm
Dir
 
Spd
km/h
Gust
km/h
Spd
kts
Gust
kts
18/12:30pm 31.9 29.6 14.1 34 10.9 ESE 19 28 10 15 1014.9 1013.7 0.0
18/12:00pm 32.3 29.7 14.9 35 10.8 SE 22 35 12 19 1015.7 1014.4 0.0
18/11:30am 31.6 28.9 15.5 37 10.1 S 24 35 13 19 1016.2 1014.9 0.0
18/11:00am 30.7 27.8 15.2 39 9.6 SSE 24 33 13 18 1016.7 1015.4 0.0
18/10:30am 30.0 26.9 15.7 42 8.9 SSE 26 35 14 19 1017.1 1015.8 0.0
18/10:00am 29.0 26.0 15.9 45 8.2 SSE 26 35 14 19 1017.3 1016.1 0.0
18/09:30am 29.0 26.1 16.2 46 8.0 SSE 26 35 14 19 1017.3 1016.1 0.0
18/09:00am 27.2 23.8 15.9 50 7.0 SSE 28 35 15 19 1017.3 1016.1 0.0
18/08:30am 26.0 21.8 16.3 55 6.0 SSE 33 43 18 23 1017.3 1016.1 0.0
18/08:00am 25.1 21.1 16.3 58 5.4 SSE 32 43 17 23 1017.1 1015.8 0.0
18/07:30am 24.7 22.2 16.2 59 5.2 SSE 24 33 13 18 1016.4 1015.1 0.0
18/07:00am 24.3 22.4 15.8 59 5.2 S 20 26 11 14 1015.8 1014.5 0.0
18/06:30am 24.2 22.3 15.7 59 5.2 SSE 20 32 11 17 1015.4 1014.1 0.0
18/06:00am 24.4 22.9 15.3 57 5.5 S 17 24 9 13 1014.9 1013.7 0.0
18/05:30am 24.7 22.2 15.1 55 5.8 S 22 26 12 14 1014.5 1013.3 0.0
18/05:00am 25.2 23.0 14.9 52 6.2 SSE 20 28 11 15 1013.9 1012.7 0.0
18/04:30am 25.4 24.4 14.5 51 6.6 SSE 13 19 7 10 1013.5 1012.3 0.0
18/04:00am 25.7 24.7 14.5 50 6.7 SSE 13 17 7 9 1013.3 1012.0 0.0
18/03:30am 26.1 25.4 14.2 48 7.1 SSE 11 19 6 10 1013.5 1012.3 0.0
18/03:00am 27.1 24.4 14.5 46 7.6 SSE 22 30 12 16 1013.5 1012.3 0.0
18/02:30am 27.0 25.3 14.7 47 7.5 S 17 30 9 16 1013.4 1012.1 0.0
18/02:00am 27.1 25.2 14.1 44 7.8 S 17 26 9 14 1013.4 1012.1 0.0
18/01:30am 27.9 26.0 14.2 43 8.3 SSE 17 22 9 12 1013.4 1012.1 0.0
18/01:00am 28.5 26.0 14.0 41 8.8 SSE 20 28 11 15 1013.6 1012.4 0.0
18/12:30am 28.9 26.4 13.6 39 9.2 SSE 19 26 10 14 1013.7 1012.5 0.0
18/12:00am 29.8 26.5 12.7 35 10.2 S 22 32 12 17 1013.8 1012.6 0.0
 
Date/Time
CST
Temp
°C
App
Temp
°C
Dew
Point
Rel
Hum
%
Delta-T
°C
Wind Press
QNH
hPa
Press
MSL
hPa
Rain
since 9 am
mm
Dir
 
Spd
km/h
Gust
km/h
Spd
kts
Gust
kts
17/11:30pm 28.4 28.0 13.1 39 9.1 NE 7 9 4 5 1013.5 1012.3 0.0
17/11:00pm 28.6 28.1 12.5 37 9.5 NE 7 7 4 4 1013.7 1012.5 0.0
17/10:30pm 28.1 29.0 12.8 38 9.1 CALM 0 0 0 0 1013.8 1012.6 0.0
17/10:00pm 28.6 29.3 12.1 36 9.7 CALM 0 0 0 0 1013.9 1012.7 0.0
17/09:30pm 30.1 29.6 12.1 33 10.6 NNE 6 7 3 4 1013.8 1012.6 0.0
17/09:00pm 30.6 29.9 12.0 32 11.0 NE 7 11 4 6 1013.6 1012.4 0.0
17/08:30pm 29.4 29.9 11.5 33 10.4 CALM 0 0 0 0 1013.3 1012.0 0.0
17/08:00pm 29.9 29.4 11.9 33 10.6 SSW 6 7 3 4 1013.1 1011.8 0.0
17/07:30pm 30.2 29.6 11.7 32 10.9 SSW 6 7 3 4 1012.7 1011.4 0.0
17/07:00pm 31.3 31.8 11.7 30 11.6 CALM 0 0 0 0 1012.4 1011.1 0.0
17/06:30pm 31.9 32.4 11.7 29 11.9 CALM 0 0 0 0 1012.2 1010.9 0.0
17/06:00pm 33.4 34.0 11.9 27 12.8 CALM 0 0 0 0 1012.0 1010.7 0.0
17/05:30pm 35.1 34.6 10.9 23 14.3 NNE 4 7 2 4 1011.7 1010.4 0.0
17/05:00pm 35.4 35.0 11.1 23 14.4 NNW 4 11 2 6 1011.5 1010.2 0.0
17/04:30pm 35.5 34.2 11.2 23 14.5 ENE 9 13 5 7 1011.1 1009.8 0.0
17/04:00pm 36.1 35.3 11.0 22 14.9 E 6 13 3 7 1011.2 1009.9 0.0
17/03:30pm 36.2 35.4 11.8 23 14.7 ESE 7 15 4 8 1011.3 1010.0 0.0
17/03:00pm 35.1 34.2 11.5 24 14.1 E 7 11 4 6 1011.5 1010.2 0.0
17/02:30pm 35.3 34.5 11.7 24 14.2 NNW 7 15 4 8 1011.8 1010.5 0.0
17/02:00pm 34.8 33.3 11.9 25 13.7 SSW 11 17 6 9 1012.1 1010.8 0.0
17/01:30pm 34.7 33.7 12.4 26 13.5 NW 9 17 5 9 1012.7 1011.4 0.0
17/01:00pm 34.9 34.0 11.3 24 14.0 NE 7 11 4 6 1013.1 1011.8 0.0
17/12:30pm 34.2 33.3 11.4 25 13.5 W 7 15 4 8 1013.6 1012.4 0.0
17/12:00pm 34.6 32.7 11.7 25 13.7 NNE 13 20 7 11 1014.3 1013.1 0.0
17/11:30am 34.2 33.3 12.5 27 13.1 N 9 19 5 10 1014.8 1013.6 0.0
17/11:00am 33.4 31.5 11.9 27 12.8 N 13 24 7 13 1015.4 1014.1 0.0
17/10:30am 33.0 30.8 12.1 28 12.5 N 15 24 8 13 1015.7 1014.4 0.0
17/10:00am 31.7 29.3 11.5 29 11.9 NNE 15 20 8 11 1015.9 1014.6 0.0
17/09:30am 31.5 29.4 12.3 31 11.4 NNE 15 24 8 13 1016.2 1014.9 0.0
17/09:00am 29.7 27.8 11.7 33 10.5 NNE 13 22 7 12 1016.2 1014.9 0.0
17/08:30am 28.4 26.9 11.9 36 9.6 NNE 11 17 6 9 1016.1 1014.8 0.0
17/08:00am 27.2 26.1 12.0 38 8.8 N 9 11 5 6 1015.9 1014.6 0.0
17/07:30am 25.2 24.2 12.4 45 7.4 NNW 9 13 5 7 1015.8 1014.5 0.0
17/07:00am 24.6 23.9 13.2 49 6.7 ENE 9 13 5 7 1015.3 1014.0 0.0
17/06:30am 23.6 22.2 12.3 49 6.5 E 11 13 6 7 1014.7 1013.5 0.0
17/06:00am 24.9 23.5 12.2 45 7.3 ENE 11 15 6 8 1014.3 1013.1 0.0
17/05:30am 25.1 23.5 12.7 46 7.2 ENE 13 15 7 8 1014.1 1012.9 0.0
17/05:00am 25.1 24.0 13.0 47 7.1 ENE 11 15 6 8 1013.7 1012.5 0.0
17/04:30am 24.3 23.6 13.2 50 6.5 NE 9 15 5 8 1013.7 1012.5 0.0
17/04:00am 23.6 24.6 13.2 52 6.1 CALM 0 0 0 0 1013.6 1012.4 0.0
17/03:30am 23.8 24.7 12.8 50 6.4 CALM 0 0 0 0 1013.8 1012.6 0.0
17/03:00am 25.3 24.9 12.9 46 7.3 NE 7 9 4 5 1013.9 1012.7 0.0
17/02:30am 25.9 25.0 12.7 44 7.7 NE 9 11 5 6 1014.2 1013.0 0.0
17/02:00am 26.6 25.5 13.0 43 8.0 ENE 11 13 6 7 1014.5 1013.3 0.0
17/01:30am 26.3 25.4 12.7 43 8.0 ENE 9 11 5 6 1015.0 1013.8 0.0
17/01:00am 26.2 25.4 13.0 44 7.8 ENE 9 11 5 6 1015.6 1014.3 0.0
17/12:30am 26.9 26.2 13.3 43 8.1 ENE 9 11 5 6 1016.0 1014.7 0.0
17/12:00am 27.5 26.8 13.1 41 8.5 ENE 9 11 5 6 1016.3 1015.0 0.0
 
Date/Time
CST
Temp
°C
App
Temp
°C
Dew
Point
Rel
Hum
%
Delta-T
°C
Wind Press
QNH
hPa
Press
MSL
hPa
Rain
since 9 am
mm
Dir
 
Spd
km/h
Gust
km/h
Spd
kts
Gust
kts
16/11:30pm 27.8 27.1 13.3 40 8.6 ENE 9 11 5 6 1016.4 1015.1 0.0
16/11:00pm 28.3 27.8 13.8 41 8.7 NE 9 11 5 6 1016.6 1015.3 0.0
16/10:30pm 28.4 27.8 13.5 40 8.9 NE 9 11 5 6 1016.7 1015.4 0.0
16/10:00pm 29.0 28.4 13.6 38 9.3 NE 9 11 5 6 1016.8 1015.5 0.0
16/09:30pm 29.3 28.7 13.5 38 9.5 ENE 9 11 5 6 1016.7 1015.4 0.0
16/09:00pm 30.0 29.3 13.3 36 10.0 NE 9 11 5 6 1016.6 1015.3 0.0
16/08:30pm 30.4 30.1 13.2 35 10.3 NE 7 11 4 6 1016.3 1015.0 0.0
16/08:00pm 31.0 30.0 13.3 34 10.7 NNE 11 13 6 7 1016.1 1014.8 0.0
16/07:30pm 31.6 31.0 13.4 33 11.0 NNE 9 13 5 7 1015.6 1014.3 0.0
16/07:00pm 32.1 31.4 13.3 31 11.4 NNE 9 11 5 6 1015.2 1013.9 0.0
16/06:30pm 32.9 32.1 13.0 30 12.0 N 9 11 5 6 1014.8 1013.6 0.0
16/06:00pm 33.8 32.8 13.3 29 12.5 NNE 11 15 6 8 1014.6 1013.4 0.0
16/05:30pm 34.8 33.7 13.0 26 13.3 NNE 11 20 6 11 1014.3 1013.1 0.0
16/05:00pm 35.5 33.6 13.1 26 13.7 NNE 15 22 8 12 1014.1 1012.9 0.0
16/04:30pm 35.9 34.3 12.8 25 14.1 NE 13 20 7 11 1014.1 1012.9 0.0
16/04:00pm 35.9 33.9 12.8 25 14.1 NE 15 22 8 12 1014.2 1013.0 0.0
16/03:30pm 35.3 33.4 11.7 24 14.1 ENE 13 26 7 14 1014.1 1012.9 0.0
16/03:00pm 35.7 34.8 12.6 25 14.1 SE 9 20 5 11 1014.3 1013.1 0.0
16/02:30pm 36.3 35.0 12.5 24 14.5 ENE 11 20 6 11 1014.5 1013.3 0.0
16/02:00pm 35.9 33.9 12.8 25 14.1 NE 15 26 8 14 1014.9 1013.7 0.0
16/01:30pm 35.2 33.6 12.8 26 13.6 NNW 13 20 7 11 1015.4 1014.1 0.0
16/01:00pm 35.3 33.4 11.7 24 14.1 NE 13 22 7 12 1015.7 1014.4 0.0
16/12:30pm 35.1 32.7 12.7 26 13.6 NNE 17 28 9 15 1016.3 1015.0 0.0
16/12:00pm 34.2 31.6 12.0 26 13.3 NNE 17 24 9 13 1016.9 1015.6 0.0
16/11:30am 34.6 32.1 12.3 26 13.4 NNE 17 28 9 15 1017.5 1016.3 0.0
16/11:00am 33.7 30.6 11.5 26 13.2 N 19 26 10 14 1017.9 1016.7 0.0
16/10:30am 32.8 30.0 11.3 27 12.7 NNE 17 24 9 13 1018.4 1017.2 0.0
16/10:00am 32.3 30.1 10.9 27 12.5 NNE 13 20 7 11 1018.7 1017.5 0.0
16/09:30am 31.4 28.7 10.2 27 12.2 ENE 15 20 8 11 1018.9 1017.7 0.0
16/09:00am 30.6 27.0 10.0 28 11.8 ENE 19 28 10 15 1018.9 1017.7 0.0
16/08:30am 29.9 26.3 10.5 30 11.1 ENE 20 28 11 15 1018.7 1017.5 0.0
16/08:00am 29.1 26.8 11.6 33 10.2 E 15 20 8 11 1018.5 1017.3 0.0
16/07:55am 28.5 27.5 12.4 37 9.5 E 9 19 5 10 1018.5 1017.3 0.0
16/07:30am 23.5 24.7 13.9 55 5.7 CALM 0 0 0 0 1018.3 1017.1 0.0
16/07:00am 22.0 23.8 15.6 67 3.9 CALM 0 0 0 0 1017.8 1016.6 0.0
16/06:30am 22.3 23.4 13.4 57 5.2 CALM 0 0 0 0 1017.3 1016.1 0.0
16/06:00am 22.1 23.1 13.2 57 5.2 CALM 0 0 0 0 1017.0 1015.7 0.0
16/05:30am 23.1 22.9 13.0 53 5.9 ENE 6 9 3 5 1016.6 1015.3 0.0
16/05:00am 23.6 23.0 13.5 53 5.9 ENE 9 11 5 6 1016.5 1015.2 0.0
16/04:30am 23.0 22.3 13.2 54 5.7 E 9 11 5 6 1016.4 1015.1 0.0
16/04:00am 22.7 23.6 12.9 54 5.7 CALM 0 0 0 0 1016.0 1014.7 0.0
16/03:30am 24.4 24.3 13.3 50 6.5 ENE 6 7 3 4 1015.9 1014.6 0.0
16/03:00am 24.8 24.6 13.7 50 6.6 NE 7 7 4 4 1015.9 1014.6 0.0
16/02:30am 25.3 25.2 13.2 47 7.1 NNE 6 7 3 4 1016.1 1014.8 0.0
16/02:00am 26.5 25.8 13.3 44 7.8 NNE 9 13 5 7 1016.1 1014.8 0.0
16/01:30am 26.7 26.0 13.1 43 8.0 NE 9 13 5 7 1016.3 1015.0 0.0
16/01:00am 27.3 26.5 12.9 41 8.5 NE 9 15 5 8 1016.6 1015.3 0.0
16/12:30am 27.8 26.7 13.0 40 8.8 NE 11 13 6 7 1016.9 1015.6 0.0
16/12:00am 28.2 26.6 12.9 38 9.1 ENE 13 15 7 8 1017.2 1015.9 0.0
 
Date/Time
CST
Temp
°C
App
Temp
°C
Dew
Point
Rel
Hum
%
Delta-T
°C
Wind Press
QNH
hPa
Press
MSL
hPa
Rain
since 9 am
mm
Dir
 
Spd
km/h
Gust
km/h
Spd
kts
Gust
kts
15/11:30pm 28.7 27.6 13.0 38 9.3 NE 11 15 6 8 1017.4 1016.2 0.0
15/11:00pm 29.0 27.4 12.8 36 9.6 NE 13 15 7 8 1017.5 1016.3 0.0
15/10:30pm 29.5 28.3 12.9 36 9.9 NE 11 15 6 8 1017.5 1016.3 0.0
15/10:00pm 29.7 28.4 12.6 35 10.2 NE 11 15 6 8 1017.5 1016.3 0.0
15/09:30pm 30.3 28.9 12.2 33 10.7 NE 11 13 6 7 1017.4 1016.2 0.0
15/09:00pm 31.1 30.2 12.5 32 11.1 ENE 9 13 5 7 1017.2 1015.9 0.0
15/08:30pm 31.2 30.1 12.1 31 11.3 ENE 9 13 5 7 1016.9 1015.6 0.0
15/08:00pm 31.3 30.0 12.6 31 11.2 E 11 13 6 7 1016.6 1015.3 0.0
15/07:30pm 32.1 31.3 12.8 30 11.6 E 9 13 5 7 1016.2 1014.9 0.0
15/07:00pm 33.1 32.0 13.2 30 12.1 E 11 13 6 7 1015.7 1014.4 0.0
15/06:30pm 34.4 32.8 13.8 29 12.7 E 15 20 8 11 1015.4 1014.1 0.0
15/06:00pm 35.1 33.5 14.9 29 12.7 ESE 17 20 9 11 1014.8 1013.6 0.0
15/05:30pm 35.5 33.6 14.2 28 13.2 ESE 17 24 9 13 1014.5 1013.3 0.0
15/05:00pm 35.9 35.3 14.5 27 13.4 E 11 15 6 8 1014.3 1013.1 0.0
15/04:30pm 36.8 35.4 13.5 24 14.4 SE 13 20 7 11 1014.2 1013.0 0.0
15/04:00pm 37.0 36.7 14.3 26 14.2 E 9 17 5 9 1014.2 1013.0 0.0
15/03:30pm 36.9 36.2 14.2 25 14.2 ENE 11 19 6 10 1014.2 1013.0 0.0
15/03:00pm 36.9 36.0 14.8 26 13.9 E 13 24 7 13 1014.4 1013.2 0.0
15/02:30pm 36.2 35.1 14.2 26 13.7 NE 13 20 7 11 1014.6 1013.4 0.0
15/02:00pm 35.7 35.4 14.4 28 13.3 NNE 9 24 5 13 1015.0 1013.8 0.0
15/01:30pm 35.5 35.1 15.3 30 12.8 NNE 11 22 6 12 1015.5 1014.2 0.0
15/01:00pm 35.5 35.1 15.3 30 12.8 N 11 24 6 13 1015.9 1014.6 0.0
15/12:30pm 35.5 34.4 15.3 30 12.8 NE 15 26 8 14 1016.4 1015.1 0.0

Other Formats:

Comma delimited format used in spreadsheet applications
http://www.bom.gov.au/fwo/IDD60801/IDD60801.94255.axf

JavaScript Object Notation format (JSON) in row-major order
http://www.bom.gov.au/fwo/IDD60801/IDD60801.94255.json